createdAt,value
2017-08-09T00:01:20.596Z,46.37
2017-08-09T00:03:46.608Z,44.73
2017-08-09T00:06:12.636Z,40.30
2017-08-09T00:08:38.657Z,46.10
2017-08-09T00:11:04.681Z,51.43
2017-08-09T00:13:31.445Z,45.80
2017-08-09T00:15:57.460Z,52.40
2017-08-09T00:18:23.498Z,46.33
2017-08-09T00:20:49.537Z,46.23
2017-08-09T00:23:16.309Z,55.53
2017-08-09T00:25:42.346Z,48.90
2017-08-09T00:28:08.373Z,49.10
2017-08-09T00:30:35.130Z,56.37
2017-08-09T00:33:01.188Z,64.20
2017-08-09T00:35:27.225Z,46.43
2017-08-09T00:37:54.009Z,47.53
2017-08-09T00:40:20.045Z,49.70
2017-08-09T00:42:46.841Z,55.50
2017-08-09T00:45:12.903Z,53.73
2017-08-09T00:47:38.942Z,55.50
2017-08-09T00:50:04.976Z,53.57
2017-08-09T00:52:31.017Z,57.77
2017-08-09T00:54:57.094Z,58.97
2017-08-09T00:57:23.132Z,53.60
2017-08-09T00:59:49.166Z,58.07
2017-08-09T01:02:15.236Z,66.20
2017-08-09T01:04:41.289Z,61.43
2017-08-09T01:07:07.325Z,73.10
2017-08-09T01:09:33.360Z,79.50
2017-08-09T01:11:59.409Z,81.43
2017-08-09T01:14:25.437Z,70.87
2017-08-09T01:16:51.485Z,72.30
2017-08-09T01:19:17.541Z,80.20
2017-08-09T01:21:43.577Z,77.43
2017-08-09T01:24:09.609Z,77.50
2017-08-09T01:26:35.625Z,78.00
2017-08-09T01:29:01.689Z,69.97
2017-08-09T01:31:27.725Z,83.17
2017-08-09T01:33:53.768Z,76.17
2017-08-09T01:36:19.814Z,70.23
2017-08-09T01:38:45.885Z,63.43
2017-08-09T01:41:26.919Z,74.00
2017-08-09T01:43:52.945Z,69.87
2017-08-09T01:46:19.078Z,77.00
2017-08-09T01:48:45.096Z,75.17
2017-08-09T01:51:11.140Z,87.43
2017-08-09T01:53:37.193Z,72.20
2017-08-09T01:56:03.984Z,83.33
2017-08-09T01:58:30.008Z,76.83
2017-08-09T02:00:56.064Z,77.63
2017-08-09T02:03:22.141Z,77.67
2017-08-09T02:05:48.345Z,77.80
2017-08-09T02:08:15.217Z,75.23
2017-08-09T02:10:41.253Z,69.40
2017-08-09T02:13:07.406Z,71.37
2017-08-09T02:15:33.432Z,74.63
2017-08-09T02:17:59.468Z,68.67
2017-08-09T02:20:25.698Z,57.63
2017-08-09T02:22:51.790Z,67.00
2017-08-09T02:25:17.805Z,66.30
2017-08-09T02:27:43.860Z,59.67
2017-08-09T02:30:10.653Z,57.37
2017-08-09T02:32:36.684Z,60.67
2017-08-09T02:35:02.704Z,56.13
2017-08-09T02:37:29.477Z,55.43
2017-08-09T02:39:55.505Z,56.30
2017-08-09T02:42:21.509Z,48.07
2017-08-09T02:44:47.561Z,45.20
2017-08-09T02:47:13.562Z,51.83
2017-08-09T02:49:39.574Z,44.67
2017-08-09T02:52:06.344Z,44.27
2017-08-09T02:54:32.407Z,42.83
2017-08-09T02:56:58.447Z,41.83
2017-08-09T02:59:24.461Z,38.70
2017-08-09T03:01:50.485Z,37.37
2017-08-09T03:04:16.493Z,33.27
2017-08-09T03:06:42.528Z,32.07
2017-08-09T03:09:08.570Z,34.03
2017-08-09T03:11:34.584Z,41.03
2017-08-09T03:14:00.609Z,30.80
2017-08-09T03:16:26.632Z,32.87
2017-08-09T03:18:52.661Z,27.23
2017-08-09T03:21:25.636Z,34.47
2017-08-09T03:23:51.657Z,30.27
2017-08-09T03:26:17.705Z,25.30
2017-08-09T03:28:43.724Z,31.27
2017-08-09T03:31:09.818Z,32.90
2017-08-09T03:33:35.840Z,29.13
2017-08-09T03:36:01.873Z,30.47
2017-08-09T03:38:27.892Z,33.10
2017-08-09T03:41:00.805Z,32.80
2017-08-09T03:43:26.857Z,33.50
2017-08-09T03:45:52.870Z,35.80
2017-08-09T03:48:18.892Z,26.47
2017-08-09T03:50:44.931Z,31.23
2017-08-09T03:53:10.956Z,39.23
2017-08-09T03:55:36.991Z,35.43
2017-08-09T03:58:03.044Z,33.67
2017-08-09T04:00:29.065Z,32.83
2017-08-09T04:02:55.836Z,36.50
2017-08-09T04:05:21.880Z,31.07
2017-08-09T04:07:47.905Z,38.93
2017-08-09T04:10:13.916Z,34.80
2017-08-09T04:12:40.783Z,35.40
2017-08-09T04:15:06.817Z,36.93
2017-08-09T04:17:32.862Z,30.90
2017-08-09T04:19:58.906Z,35.17
2017-08-09T04:22:24.969Z,34.43
2017-08-09T04:24:51.013Z,35.03
2017-08-09T04:27:17.073Z,38.73
2017-08-09T04:29:43.114Z,39.73
2017-08-09T04:32:09.157Z,40.57
2017-08-09T04:34:35.212Z,41.10
2017-08-09T04:37:01.254Z,38.20
2017-08-09T04:39:27.296Z,44.03
2017-08-09T04:41:53.323Z,46.10
2017-08-09T04:44:19.351Z,46.20
2017-08-09T04:46:45.368Z,46.70
2017-08-09T04:49:12.137Z,46.40
2017-08-09T04:51:38.157Z,54.10
2017-08-09T04:54:04.182Z,57.47
2017-08-09T04:56:30.230Z,46.33
2017-08-09T04:58:56.252Z,47.77
2017-08-09T05:01:22.278Z,46.60
2017-08-09T05:03:48.285Z,50.40
2017-08-09T05:06:14.315Z,54.10
2017-08-09T05:08:40.324Z,55.60
2017-08-09T05:11:06.346Z,54.60
2017-08-09T05:13:32.393Z,55.73
2017-08-09T05:15:58.413Z,49.37
2017-08-09T05:18:24.484Z,58.20
2017-08-09T05:20:50.592Z,61.20
2017-08-09T05:23:16.740Z,60.47
2017-08-09T05:25:42.812Z,59.50
2017-08-09T05:28:08.826Z,61.77
2017-08-09T05:30:34.841Z,58.13
2017-08-09T05:33:00.979Z,66.37
2017-08-09T05:35:26.977Z,54.33
2017-08-09T05:37:53.076Z,56.67
2017-08-09T05:40:19.856Z,56.70
2017-08-09T05:42:45.896Z,57.70
2017-08-09T05:45:12.025Z,60.10
2017-08-09T05:47:38.165Z,62.77
2017-08-09T05:50:04.205Z,59.57
2017-08-09T05:52:30.236Z,47.47
2017-08-09T05:54:56.285Z,58.60
2017-08-09T05:57:22.333Z,61.67
2017-08-09T05:59:48.498Z,58.50
2017-08-09T06:02:14.545Z,56.90
2017-08-09T06:04:40.604Z,55.87
2017-08-09T06:07:06.696Z,60.10
2017-08-09T06:09:33.512Z,61.13
2017-08-09T06:11:59.548Z,60.73
2017-08-09T06:14:25.690Z,67.30
2017-08-09T06:16:51.780Z,55.80
2017-08-09T06:19:17.960Z,66.23
2017-08-09T06:21:44.749Z,53.40
2017-08-09T06:24:10.774Z,52.20
2017-08-09T06:26:36.816Z,56.87
2017-08-09T06:29:02.866Z,53.87
2017-08-09T06:31:28.913Z,49.37
2017-08-09T06:33:54.930Z,50.33
2017-08-09T06:36:20.948Z,48.80
2017-08-09T06:38:47.008Z,49.13
2017-08-09T06:41:13.049Z,51.20
2017-08-09T06:43:39.192Z,50.60
2017-08-09T06:46:05.232Z,51.27
2017-08-09T06:48:31.313Z,49.83
2017-08-09T06:50:57.369Z,48.43
2017-08-09T06:53:23.422Z,46.90
2017-08-09T06:55:49.460Z,43.10
2017-08-09T06:58:15.485Z,43.40
2017-08-09T07:00:41.528Z,35.47
2017-08-09T07:03:07.557Z,34.13
2017-08-09T07:05:33.590Z,37.60
2017-08-09T07:07:59.624Z,40.23
2017-08-09T07:10:25.653Z,35.10
2017-08-09T07:12:51.695Z,30.30
2017-08-09T07:15:17.726Z,36.87
2017-08-09T07:17:43.753Z,33.23
2017-08-09T07:20:09.795Z,28.53
2017-08-09T07:22:35.840Z,33.97
2017-08-09T07:25:01.883Z,28.47
2017-08-09T07:27:27.949Z,28.67
2017-08-09T07:29:53.989Z,28.60
2017-08-09T07:32:20.039Z,25.93
2017-08-09T07:34:46.813Z,30.00
2017-08-09T07:37:12.880Z,32.40
2017-08-09T07:39:38.912Z,25.33
2017-08-09T07:42:04.928Z,30.87
2017-08-09T07:44:30.961Z,29.50
2017-08-09T07:46:56.981Z,40.73
2017-08-09T07:49:23.010Z,25.37
2017-08-09T07:51:49.033Z,22.37
2017-08-09T07:54:15.067Z,23.20
2017-08-09T07:56:41.090Z,22.93
2017-08-09T07:59:07.130Z,28.93
2017-08-09T08:01:33.157Z,28.93
2017-08-09T08:03:59.190Z,18.90
2017-08-09T08:06:26.069Z,22.97
2017-08-09T08:08:52.131Z,20.07
2017-08-09T08:11:18.245Z,20.97
2017-08-09T08:13:45.000Z,21.00
2017-08-09T08:16:11.020Z,21.67
2017-08-09T08:18:37.040Z,24.30
2017-08-09T08:21:03.093Z,21.77
2017-08-09T08:23:29.113Z,23.30
2017-08-09T08:25:55.138Z,20.50
2017-08-09T08:28:21.153Z,18.63
2017-08-09T08:30:47.192Z,16.53
2017-08-09T08:33:13.225Z,22.30
2017-08-09T08:35:39.294Z,21.37
2017-08-09T08:38:05.315Z,21.93
2017-08-09T08:40:31.364Z,21.30
2017-08-09T08:42:59.948Z,20.50
2017-08-09T08:45:27.764Z,22.07
2017-08-09T08:47:55.585Z,23.20
2017-08-09T08:50:23.380Z,20.37
2017-08-09T08:52:51.184Z,25.03
2017-08-09T08:55:18.989Z,27.53
2017-08-09T08:57:46.801Z,18.63
2017-08-09T09:00:14.615Z,21.43
2017-08-09T09:02:42.432Z,22.00
2017-08-09T09:05:10.241Z,27.40
2017-08-09T09:07:38.064Z,26.63
2017-08-09T09:10:05.864Z,23.97
2017-08-09T09:12:33.684Z,25.30
2017-08-09T09:15:01.487Z,33.43
2017-08-09T09:17:29.280Z,35.33
2017-08-09T09:19:57.135Z,34.20
2017-08-09T09:22:24.960Z,32.00
2017-08-09T09:24:52.764Z,30.07
2017-08-09T09:27:20.572Z,26.57
2017-08-09T09:29:48.377Z,26.80
2017-08-09T09:32:16.196Z,21.97
2017-08-09T09:34:44.010Z,22.93
2017-08-09T09:37:11.825Z,28.40
2017-08-09T09:39:39.642Z,19.40
2017-08-09T09:42:06.022Z,20.37
2017-08-09T09:44:32.075Z,18.17
2017-08-09T09:46:58.109Z,29.93
2017-08-09T09:49:24.161Z,25.47
2017-08-09T09:51:50.185Z,28.93
2017-08-09T09:54:16.208Z,25.20
2017-08-09T09:56:49.104Z,29.50
2017-08-09T09:59:15.122Z,28.30
2017-08-09T10:01:41.150Z,32.73
2017-08-09T10:04:07.161Z,25.80
2017-08-09T10:06:33.200Z,22.57
2017-08-09T10:08:59.228Z,25.00
2017-08-09T10:11:25.251Z,23.40
2017-08-09T10:13:53.056Z,21.20
2017-08-09T10:16:20.869Z,21.00
2017-08-09T10:18:47.637Z,18.50
2017-08-09T10:21:13.648Z,21.50
2017-08-09T10:23:39.660Z,19.43
2017-08-09T10:26:05.697Z,26.50
2017-08-09T10:28:32.470Z,27.80
2017-08-09T10:30:58.496Z,26.17
2017-08-09T10:33:25.388Z,26.63
2017-08-09T10:35:51.392Z,25.80
2017-08-09T10:38:18.132Z,28.27
2017-08-09T10:40:44.157Z,32.00
2017-08-09T10:43:13.125Z,20.77
2017-08-09T10:45:47.928Z,21.83
2017-08-09T10:48:16.560Z,24.80
2017-08-09T10:50:44.357Z,21.53
2017-08-09T10:53:12.151Z,24.97
2017-08-09T10:55:39.946Z,25.00
2017-08-09T10:58:07.745Z,22.37
2017-08-09T11:00:35.539Z,21.47
2017-08-09T11:03:03.612Z,22.83
2017-08-09T11:05:31.416Z,27.30
2017-08-09T11:07:59.364Z,25.63
2017-08-09T11:10:26.164Z,23.87
2017-08-09T11:12:52.196Z,28.67
2017-08-09T11:15:18.973Z,24.00
2017-08-09T11:17:44.993Z,22.40
2017-08-09T11:20:11.029Z,25.43
2017-08-09T11:22:38.846Z,24.93
2017-08-09T11:25:06.686Z,23.17
2017-08-09T11:27:34.473Z,24.50
2017-08-09T11:30:02.276Z,29.07
2017-08-09T11:32:30.081Z,30.67
2017-08-09T11:34:57.881Z,26.03
2017-08-09T11:37:25.701Z,29.23
2017-08-09T11:39:53.508Z,28.00
2017-08-09T11:42:21.296Z,26.50
2017-08-09T11:44:49.076Z,20.67
2017-08-09T11:47:16.860Z,21.63
2017-08-09T11:49:44.653Z,29.87
2017-08-09T11:52:12.459Z,31.57
2017-08-09T11:54:40.257Z,27.10
2017-08-09T11:57:08.052Z,32.13
2017-08-09T11:59:35.854Z,25.10
2017-08-09T12:02:03.661Z,24.73
2017-08-09T12:04:31.457Z,30.07
2017-08-09T12:06:59.277Z,34.80
2017-08-09T12:09:27.073Z,31.97
2017-08-09T12:11:54.913Z,40.37
2017-08-09T12:14:22.784Z,35.50
2017-08-09T12:17:05.575Z,38.60
2017-08-09T12:19:33.373Z,27.30
2017-08-09T12:22:01.216Z,30.13
2017-08-09T12:24:29.046Z,30.90
2017-08-09T12:26:56.882Z,29.63
2017-08-09T12:29:24.672Z,29.93
2017-08-09T12:31:52.448Z,23.87
2017-08-09T12:34:20.253Z,34.07
2017-08-09T12:36:48.041Z,28.20
2017-08-09T12:39:15.852Z,19.13
2017-08-09T12:41:43.647Z,18.93
2017-08-09T12:44:11.445Z,21.73
2017-08-09T12:46:39.248Z,20.70
2017-08-09T12:49:07.056Z,23.20
2017-08-09T12:51:34.836Z,23.00
2017-08-09T12:54:02.644Z,22.60
2017-08-09T12:56:30.468Z,27.57
2017-08-09T12:58:58.321Z,22.90
2017-08-09T13:01:26.142Z,24.87
2017-08-09T13:03:53.947Z,20.97
2017-08-09T13:06:21.744Z,20.03
2017-08-09T13:08:49.532Z,17.37
2017-08-09T13:11:17.342Z,14.90
2017-08-09T13:13:45.120Z,17.27
2017-08-09T13:16:12.924Z,11.40
2017-08-09T13:18:40.736Z,12.40
2017-08-09T13:21:08.539Z,15.97
2017-08-09T13:23:36.335Z,15.10
2017-08-09T13:26:04.140Z,15.70
2017-08-09T13:28:31.952Z,15.90
2017-08-09T13:30:59.793Z,11.83
2017-08-09T13:33:27.599Z,33.73
2017-08-09T13:35:56.619Z,11.63
2017-08-09T13:38:24.503Z,17.33
2017-08-09T13:40:52.399Z,15.57
2017-08-09T13:43:20.200Z,13.50
2017-08-09T13:45:47.996Z,16.43
2017-08-09T13:48:15.808Z,12.07
2017-08-09T13:50:43.614Z,11.73
2017-08-09T13:53:11.417Z,14.10
2017-08-09T13:55:39.212Z,19.03
2017-08-09T13:58:07.016Z,11.23
2017-08-09T14:00:34.808Z,13.27
2017-08-09T14:03:02.933Z,13.10
2017-08-09T14:05:30.725Z,14.27
2017-08-09T14:07:58.536Z,14.83
2017-08-09T14:10:26.342Z,13.03
2017-08-09T14:12:54.165Z,10.13
2017-08-09T14:15:21.968Z,9.47
2017-08-09T14:17:49.758Z,8.57
2017-08-09T14:20:17.625Z,7.57
2017-08-09T14:22:45.440Z,7.50
2017-08-09T14:25:13.248Z,10.00
2017-08-09T14:27:41.057Z,15.17
2017-08-09T14:30:08.864Z,12.47
2017-08-09T14:32:36.660Z,14.83
2017-08-09T14:35:04.464Z,7.67
2017-08-09T14:37:32.260Z,7.07
2017-08-09T14:40:00.074Z,8.20
2017-08-09T14:42:27.892Z,8.63
2017-08-09T14:44:55.713Z,6.83
2017-08-09T14:47:23.512Z,10.10
2017-08-09T14:49:51.313Z,5.90
2017-08-09T14:52:17.352Z,11.43
2017-08-09T14:54:43.393Z,6.40
2017-08-09T14:57:11.205Z,4.23
2017-08-09T14:59:39.008Z,7.37
2017-08-09T15:02:06.821Z,7.00
2017-08-09T15:04:34.628Z,4.47
2017-08-09T15:07:02.443Z,5.20
2017-08-09T15:09:30.248Z,7.03
2017-08-09T15:11:58.061Z,6.30
2017-08-09T15:14:25.856Z,7.77
2017-08-09T15:16:53.646Z,7.00
2017-08-09T15:19:21.440Z,5.93
2017-08-09T15:21:49.252Z,7.10
2017-08-09T15:24:17.052Z,9.33
2017-08-09T15:26:43.092Z,7.60
2017-08-09T15:29:09.129Z,7.53
2017-08-09T15:31:35.889Z,10.70
2017-08-09T15:34:01.966Z,8.10
2017-08-09T15:36:28.005Z,12.83
2017-08-09T15:38:54.033Z,7.17
2017-08-09T15:41:20.053Z,6.63
2017-08-09T15:43:46.085Z,9.50
2017-08-09T15:46:12.845Z,16.63
2017-08-09T15:48:38.865Z,11.67
2017-08-09T15:51:04.864Z,10.83
2017-08-09T15:53:32.681Z,9.63
2017-08-09T15:56:00.496Z,8.90
2017-08-09T15:58:28.293Z,10.47
2017-08-09T16:00:56.089Z,11.17
2017-08-09T16:03:23.897Z,7.93
2017-08-09T16:05:51.688Z,15.73
2017-08-09T16:08:19.472Z,10.33
2017-08-09T16:10:47.261Z,10.80
2017-08-09T16:13:15.052Z,12.63
2017-08-09T16:15:42.873Z,10.80
2017-08-09T16:18:10.664Z,11.83
2017-08-09T16:20:38.469Z,12.60
2017-08-09T16:23:06.248Z,9.10
2017-08-09T16:25:34.040Z,11.87
2017-08-09T16:28:01.839Z,9.63
2017-08-09T16:30:29.633Z,12.00
2017-08-09T16:32:57.434Z,11.90
2017-08-09T16:35:25.264Z,13.83
2017-08-09T16:37:53.053Z,12.63
2017-08-09T16:40:20.859Z,11.67
2017-08-09T16:42:48.673Z,13.27
2017-08-09T16:45:16.480Z,11.30
2017-08-09T16:47:44.286Z,15.10
2017-08-09T16:50:12.079Z,10.17
2017-08-09T16:52:39.876Z,11.47
2017-08-09T16:55:07.683Z,16.07
2017-08-09T16:57:35.500Z,9.87
2017-08-09T17:00:03.301Z,10.23
2017-08-09T17:02:31.157Z,14.63
2017-08-09T17:04:58.988Z,11.63
2017-08-09T17:07:26.800Z,14.43
2017-08-09T17:09:54.620Z,11.73
2017-08-09T17:12:22.420Z,12.47
2017-08-09T17:14:50.229Z,10.50
2017-08-09T17:17:18.033Z,9.90
2017-08-09T17:19:45.826Z,13.30
2017-08-09T17:22:13.624Z,13.10
2017-08-09T17:24:41.418Z,9.43
2017-08-09T17:27:09.208Z,13.80
2017-08-09T17:29:37.002Z,12.93
2017-08-09T17:32:04.791Z,13.80
2017-08-09T17:34:32.604Z,13.13
2017-08-09T17:37:00.408Z,15.77
2017-08-09T17:39:28.207Z,9.67
2017-08-09T17:41:55.996Z,10.50
2017-08-09T17:44:23.817Z,8.70
2017-08-09T17:46:51.625Z,14.63
2017-08-09T17:49:19.425Z,14.83
2017-08-09T17:51:47.308Z,11.40
2017-08-09T17:54:15.173Z,10.23
2017-08-09T17:56:42.960Z,12.80
2017-08-09T17:59:10.753Z,11.10
2017-08-09T18:01:38.560Z,7.53
2017-08-09T18:04:06.349Z,12.70
2017-08-09T18:06:34.148Z,10.43
2017-08-09T18:09:01.957Z,7.63
2017-08-09T18:11:29.781Z,8.30
2017-08-09T18:13:57.572Z,7.80
2017-08-09T18:16:25.362Z,8.53
2017-08-09T18:18:53.145Z,8.40
2017-08-09T18:21:20.961Z,10.60
2017-08-09T18:23:48.748Z,9.37
2017-08-09T18:26:16.544Z,7.57
2017-08-09T18:28:44.324Z,8.37
2017-08-09T18:31:12.112Z,9.40
2017-08-09T18:33:39.888Z,9.57
2017-08-09T18:36:07.677Z,7.20
2017-08-09T18:38:35.482Z,12.70
2017-08-09T18:41:03.285Z,7.00
2017-08-09T18:43:31.088Z,6.97
2017-08-09T18:45:58.900Z,6.80
2017-08-09T18:48:26.713Z,8.30
2017-08-09T18:50:54.517Z,10.83
2017-08-09T18:53:22.336Z,12.73
2017-08-09T18:55:50.121Z,9.23
2017-08-09T18:58:17.931Z,11.47
2017-08-09T19:00:45.735Z,7.10
2017-08-09T19:03:13.545Z,10.67
2017-08-09T19:05:41.412Z,8.87
2017-08-09T19:08:09.224Z,8.27
2017-08-09T19:10:37.028Z,7.93
2017-08-09T19:13:04.840Z,7.87
2017-08-09T19:15:32.647Z,7.63
2017-08-09T19:18:00.449Z,9.07
2017-08-09T19:20:28.258Z,7.93
2017-08-09T19:22:56.065Z,8.73
2017-08-09T19:25:23.881Z,8.47
2017-08-09T19:27:51.720Z,8.83
2017-08-09T19:30:19.532Z,9.13
2017-08-09T19:32:47.340Z,9.17
2017-08-09T19:35:15.168Z,13.57
2017-08-09T19:37:42.969Z,12.60
2017-08-09T19:40:10.805Z,12.97
2017-08-09T19:42:38.612Z,12.03
2017-08-09T19:45:06.422Z,10.13
2017-08-09T19:47:34.221Z,11.17
2017-08-09T19:50:02.041Z,9.30
2017-08-09T19:52:29.894Z,9.43
2017-08-09T19:54:57.719Z,14.10
2017-08-09T19:57:25.526Z,13.03
2017-08-09T19:59:53.349Z,9.03
2017-08-09T20:02:21.232Z,8.97
2017-08-09T20:04:49.186Z,8.87
2017-08-09T20:07:16.990Z,9.60
2017-08-09T20:09:44.792Z,10.53
2017-08-09T20:12:12.589Z,17.07
2017-08-09T20:14:40.410Z,13.97
2017-08-09T20:17:08.223Z,8.17
2017-08-09T20:19:36.028Z,12.20
2017-08-09T20:22:03.852Z,10.83
2017-08-09T20:24:31.669Z,19.97
2017-08-09T20:26:59.478Z,10.37
2017-08-09T20:29:27.264Z,11.30
2017-08-09T20:31:55.080Z,16.27
2017-08-09T20:34:23.768Z,15.00
2017-08-09T20:36:51.604Z,14.23
2017-08-09T20:39:19.399Z,12.60
2017-08-09T20:41:47.205Z,11.90
2017-08-09T20:44:14.984Z,10.60
2017-08-09T20:46:42.768Z,16.63
2017-08-09T20:49:10.552Z,18.37
2017-08-09T20:51:38.370Z,13.87
2017-08-09T20:54:06.172Z,11.97
2017-08-09T20:56:33.973Z,13.80
2017-08-09T20:59:01.779Z,16.73
2017-08-09T21:01:29.585Z,16.63
2017-08-09T21:03:57.410Z,13.30
2017-08-09T21:06:25.204Z,14.90
2017-08-09T21:08:52.999Z,16.80
2017-08-09T21:11:20.812Z,16.30
2017-08-09T21:13:48.604Z,15.73
2017-08-09T21:16:16.393Z,15.63
2017-08-09T21:18:44.185Z,16.27
2017-08-09T21:21:11.967Z,14.57
2017-08-09T21:23:39.752Z,14.97
2017-08-09T21:26:07.560Z,17.17
2017-08-09T21:28:35.369Z,15.43
2017-08-09T21:31:03.156Z,17.00
2017-08-09T21:33:30.943Z,14.63
2017-08-09T21:35:58.731Z,15.70
2017-08-09T21:38:26.525Z,16.50
2017-08-09T21:40:54.349Z,15.07
2017-08-09T21:43:22.145Z,20.00
2017-08-09T21:45:49.952Z,15.40
2017-08-09T21:48:17.744Z,17.70
2017-08-09T21:50:45.547Z,17.30
2017-08-09T21:53:13.367Z,13.27
2017-08-09T21:55:41.176Z,18.97
2017-08-09T21:58:08.972Z,14.57
2017-08-09T22:00:36.789Z,19.07
2017-08-09T22:03:04.640Z,15.17
2017-08-09T22:05:32.463Z,19.17
2017-08-09T22:08:00.280Z,16.40
2017-08-09T22:10:28.085Z,17.03
2017-08-09T22:12:56.567Z,14.83
2017-08-09T22:15:24.584Z,28.77
2017-08-09T22:17:52.364Z,15.37
2017-08-09T22:20:20.149Z,14.53
2017-08-09T22:22:47.936Z,14.70
2017-08-09T22:25:15.754Z,16.10
2017-08-09T22:27:43.569Z,15.93
2017-08-09T22:30:11.439Z,14.37
2017-08-09T22:32:39.233Z,14.60
2017-08-09T22:35:07.021Z,14.03
2017-08-09T22:37:34.860Z,15.67
2017-08-09T22:40:02.657Z,15.63
2017-08-09T22:42:30.482Z,24.63
2017-08-09T22:44:58.264Z,16.80
2017-08-09T22:47:26.052Z,15.73
2017-08-09T22:49:53.841Z,16.03
2017-08-09T22:52:21.633Z,14.33
2017-08-09T22:54:49.416Z,15.23
2017-08-09T22:57:17.217Z,21.57
2017-08-09T22:59:45.005Z,15.53
2017-08-09T23:02:12.788Z,21.43
2017-08-09T23:04:40.600Z,23.83
2017-08-09T23:07:08.384Z,16.37
2017-08-09T23:09:36.168Z,15.80
2017-08-09T23:12:03.949Z,20.50
2017-08-09T23:14:31.764Z,17.57
2017-08-09T23:16:59.565Z,26.83
2017-08-09T23:19:27.368Z,22.00
2017-08-09T23:21:55.181Z,20.00
2017-08-09T23:24:22.972Z,22.07
2017-08-09T23:26:50.756Z,21.70
2017-08-09T23:29:18.539Z,27.53
2017-08-09T23:31:46.312Z,23.43
2017-08-09T23:34:14.100Z,23.20
2017-08-09T23:36:41.908Z,24.67
2017-08-09T23:39:09.794Z,21.33
2017-08-09T23:41:37.592Z,29.77
2017-08-09T23:44:05.409Z,21.47
2017-08-09T23:46:33.236Z,29.60
2017-08-09T23:49:01.048Z,25.63
2017-08-09T23:51:28.855Z,25.33
2017-08-09T23:53:56.672Z,23.67
2017-08-09T23:56:24.464Z,22.33
2017-08-09T23:58:52.268Z,23.27
